createdAt,value
2022-09-16T00:00:18.987Z,85.56
2022-09-16T00:02:45.460Z,84.90
2022-09-16T00:05:11.956Z,84.37
2022-09-16T00:07:38.567Z,84.43
2022-09-16T00:10:06.089Z,84.03
2022-09-16T00:12:32.808Z,85.18
2022-09-16T00:14:59.166Z,84.66
2022-09-16T00:17:25.589Z,85.24
2022-09-16T00:19:51.972Z,86.24
2022-09-16T00:22:18.732Z,86.29
2022-09-16T00:24:45.096Z,86.47
2022-09-16T00:27:13.070Z,87.08
2022-09-16T00:29:39.467Z,86.20
2022-09-16T00:32:05.892Z,85.40
2022-09-16T00:34:32.266Z,85.66
2022-09-16T00:36:58.656Z,86.31
2022-09-16T00:39:25.370Z,85.32
2022-09-16T00:41:51.788Z,86.00
2022-09-16T00:44:55.350Z,85.54
2022-09-16T00:47:44.629Z,83.63
2022-09-16T00:50:20.546Z,84.77
2022-09-16T00:52:48.051Z,85.29
2022-09-16T00:55:19.360Z,85.37
2022-09-16T00:57:46.862Z,84.63
2022-09-16T01:00:14.055Z,84.70
2022-09-16T01:02:44.147Z,83.26
2022-09-16T01:05:15.435Z,82.95
2022-09-16T01:07:52.311Z,82.18
2022-09-16T01:10:22.756Z,79.67
2022-09-16T01:12:54.567Z,78.55
2022-09-16T01:15:26.407Z,79.44
2022-09-16T01:18:21.508Z,79.31
2022-09-16T01:20:47.815Z,79.86
2022-09-16T01:23:29.347Z,79.63
2022-09-16T01:26:08.848Z,77.09
2022-09-16T01:28:45.944Z,77.47
2022-09-16T01:31:31.434Z,77.19
2022-09-16T01:34:33.310Z,78.38
2022-09-16T01:37:13.046Z,78.87
2022-09-16T01:39:42.344Z,79.48
2022-09-16T01:42:34.943Z,78.96
2022-09-16T01:45:33.398Z,77.64
2022-09-16T01:48:20.129Z,77.43
2022-09-16T01:50:52.837Z,78.32
2022-09-16T01:53:24.444Z,78.98
2022-09-16T01:56:18.611Z,80.37
2022-09-16T01:58:48.090Z,80.89
2022-09-16T02:01:55.043Z,81.96
2022-09-16T02:04:39.929Z,82.95
2022-09-16T02:07:10.715Z,82.13
2022-09-16T02:09:47.684Z,82.71
2022-09-16T02:12:20.888Z,84.39
2022-09-16T02:14:49.026Z,85.33
2022-09-16T02:17:20.240Z,85.70
2022-09-16T02:19:53.513Z,86.08
2022-09-16T02:22:25.703Z,85.91
2022-09-16T02:24:52.914Z,84.85
2022-09-16T02:27:22.981Z,85.92
2022-09-16T02:29:55.742Z,85.98
2022-09-16T02:32:25.976Z,86.20
2022-09-16T02:34:54.592Z,85.64
2022-09-16T02:37:36.564Z,85.88
2022-09-16T02:40:10.225Z,85.21
2022-09-16T02:42:36.668Z,85.22
2022-09-16T02:45:03.598Z,85.41
2022-09-16T02:47:37.433Z,85.18
2022-09-16T02:50:27.286Z,85.94
2022-09-16T02:53:02.556Z,86.46
2022-09-16T02:55:38.742Z,88.40
2022-09-16T02:58:06.615Z,87.28
2022-09-16T03:00:39.757Z,86.27
2022-09-16T03:03:06.350Z,85.65
2022-09-16T03:05:32.836Z,86.14
2022-09-16T03:08:02.998Z,86.08
2022-09-16T03:10:36.665Z,85.75
2022-09-16T03:13:34.716Z,86.05
2022-09-16T03:16:45.365Z,86.37
2022-09-16T03:19:36.018Z,86.64
2022-09-16T03:22:32.215Z,85.24
2022-09-16T03:25:09.776Z,84.40
2022-09-16T03:27:44.533Z,80.36
2022-09-16T03:30:11.584Z,79.98
2022-09-16T03:32:48.866Z,79.12
2022-09-16T03:35:19.194Z,78.99
2022-09-16T03:37:46.995Z,77.30
2022-09-16T03:40:18.419Z,79.22
2022-09-16T03:42:45.378Z,80.35
2022-09-16T03:45:17.742Z,83.97
2022-09-16T03:47:46.510Z,84.58
2022-09-16T03:50:14.246Z,85.35
2022-09-16T03:52:40.622Z,84.99
2022-09-16T03:55:07.908Z,81.95
2022-09-16T03:57:34.593Z,82.63
2022-09-16T04:00:01.218Z,83.34
2022-09-16T04:02:27.718Z,83.94
2022-09-16T04:04:54.136Z,82.95
2022-09-16T04:07:20.736Z,83.05
2022-09-16T04:09:47.194Z,82.79
2022-09-16T04:12:14.907Z,84.08
2022-09-16T04:14:41.361Z,83.35
2022-09-16T04:17:08.735Z,83.19
2022-09-16T04:19:35.182Z,83.46
2022-09-16T04:22:01.582Z,84.07
2022-09-16T04:24:27.992Z,83.37
2022-09-16T04:26:54.355Z,85.23
2022-09-16T04:29:20.719Z,83.70
2022-09-16T04:31:47.122Z,85.06
2022-09-16T04:34:13.608Z,85.23
2022-09-16T04:36:40.170Z,85.92
2022-09-16T04:39:06.585Z,85.36
2022-09-16T04:41:32.979Z,84.04
2022-09-16T04:44:00.326Z,84.20
2022-09-16T04:46:28.732Z,84.18
2022-09-16T04:48:56.347Z,83.95
2022-09-16T04:51:23.951Z,84.77
2022-09-16T04:53:50.403Z,83.96
2022-09-16T04:56:22.231Z,84.42
2022-09-16T04:58:51.286Z,83.76
2022-09-16T05:01:23.857Z,83.99
2022-09-16T05:03:53.419Z,84.14
2022-09-16T05:06:22.766Z,84.66
2022-09-16T05:08:50.588Z,84.87
2022-09-16T05:11:20.340Z,85.06
2022-09-16T05:13:46.856Z,84.51
2022-09-16T05:16:16.230Z,85.09
2022-09-16T05:18:44.169Z,85.41
2022-09-16T05:21:13.650Z,85.28
2022-09-16T05:23:46.900Z,84.63
2022-09-16T05:26:17.536Z,85.43
2022-09-16T05:28:43.909Z,85.66
2022-09-16T05:31:11.818Z,85.63
2022-09-16T05:33:44.696Z,84.67
2022-09-16T05:36:14.350Z,86.00
2022-09-16T05:38:40.966Z,86.10
2022-09-16T05:41:07.960Z,85.81
2022-09-16T05:43:36.435Z,84.96
2022-09-16T05:46:04.890Z,84.85
2022-09-16T05:48:32.310Z,84.84
2022-09-16T05:51:04.778Z,84.19
2022-09-16T05:53:33.653Z,85.07
2022-09-16T05:56:06.242Z,84.97
2022-09-16T05:58:34.290Z,84.66
2022-09-16T06:01:11.115Z,85.42
2022-09-16T06:03:39.496Z,84.36
2022-09-16T06:06:14.651Z,83.63
2022-09-16T06:08:41.424Z,83.69
2022-09-16T06:11:10.843Z,85.15
2022-09-16T06:13:38.063Z,84.43
2022-09-16T06:16:06.564Z,84.78
2022-09-16T06:18:34.010Z,84.03
2022-09-16T06:21:05.203Z,83.88
2022-09-16T06:23:31.786Z,84.31
2022-09-16T06:26:14.008Z,84.99
2022-09-16T06:28:41.196Z,85.15
2022-09-16T06:31:12.991Z,85.27
2022-09-16T06:33:40.111Z,84.31
2022-09-16T06:36:08.064Z,84.37
2022-09-16T06:38:34.571Z,84.92
2022-09-16T06:41:03.247Z,85.42
2022-09-16T06:43:29.896Z,86.08
2022-09-16T06:46:02.174Z,86.02
2022-09-16T06:48:29.566Z,84.75
2022-09-16T06:51:06.073Z,84.82
2022-09-16T06:53:32.825Z,85.08
2022-09-16T06:56:04.836Z,84.11
2022-09-16T06:58:36.488Z,83.99
2022-09-16T07:01:11.796Z,84.07
2022-09-16T07:03:40.443Z,85.12
2022-09-16T07:06:08.117Z,85.05
2022-09-16T07:08:36.454Z,84.95
2022-09-16T07:11:11.510Z,84.40
2022-09-16T07:13:37.959Z,84.67
2022-09-16T07:16:19.706Z,83.09
2022-09-16T07:18:48.228Z,83.03
2022-09-16T07:21:17.075Z,82.07
2022-09-16T07:23:44.773Z,81.57
2022-09-16T07:26:14.356Z,80.68
2022-09-16T07:28:42.540Z,80.07
2022-09-16T07:31:13.446Z,80.20
2022-09-16T07:33:42.342Z,78.71
2022-09-16T07:36:10.958Z,78.66
2022-09-16T07:38:37.930Z,78.03
2022-09-16T07:41:11.307Z,78.47
2022-09-16T07:43:41.627Z,78.68
2022-09-16T07:46:10.621Z,77.28
2022-09-16T07:48:37.863Z,78.04
2022-09-16T07:51:10.551Z,76.91
2022-09-16T07:53:37.651Z,78.45
2022-09-16T07:56:06.810Z,79.49
2022-09-16T07:58:33.351Z,79.85
2022-09-16T08:01:04.257Z,78.50
2022-09-16T08:03:32.606Z,77.32
2022-09-16T08:06:05.760Z,78.53
2022-09-16T08:08:33.038Z,78.01
2022-09-16T08:11:00.642Z,77.78
2022-09-16T08:13:29.211Z,78.16
2022-09-16T08:15:59.368Z,78.20
2022-09-16T08:18:25.772Z,80.12
2022-09-16T08:20:52.134Z,80.72
2022-09-16T08:23:18.937Z,79.84
2022-09-16T08:25:45.540Z,80.25
2022-09-16T08:28:16.608Z,79.10
2022-09-16T08:30:43.925Z,78.03
2022-09-16T08:33:10.790Z,77.06
2022-09-16T08:35:37.217Z,77.32
2022-09-16T08:38:03.782Z,78.74
2022-09-16T08:40:36.884Z,80.07
2022-09-16T08:43:12.506Z,81.16
2022-09-16T08:45:41.960Z,79.70
2022-09-16T08:48:28.559Z,81.25
2022-09-16T08:50:58.918Z,82.57
2022-09-16T08:53:36.847Z,82.46
2022-09-16T08:56:07.438Z,84.28
2022-09-16T08:58:45.994Z,85.06
2022-09-16T09:01:23.376Z,86.10
2022-09-16T09:03:50.045Z,88.90
2022-09-16T09:07:00.044Z,86.65
2022-09-16T09:09:41.605Z,89.15
2022-09-16T09:12:27.083Z,89.13
2022-09-16T09:15:17.330Z,88.56
2022-09-16T09:18:10.810Z,88.08
2022-09-16T09:20:47.899Z,88.44
2022-09-16T09:23:47.387Z,88.53
2022-09-16T09:26:22.131Z,87.27
2022-09-16T09:29:00.523Z,86.42
2022-09-16T09:31:33.598Z,88.23
2022-09-16T09:34:26.731Z,85.94
2022-09-16T09:36:56.010Z,85.82
2022-09-16T09:39:59.738Z,85.15
2022-09-16T09:42:34.149Z,87.69
2022-09-16T09:45:05.432Z,86.67
2022-09-16T09:47:47.921Z,86.99
2022-09-16T09:50:20.544Z,84.48
2022-09-16T09:53:08.995Z,83.72
2022-09-16T09:55:35.619Z,83.02
2022-09-16T09:58:12.159Z,82.14
2022-09-16T10:00:38.598Z,83.57
2022-09-16T10:03:14.716Z,80.62
2022-09-16T10:05:42.214Z,80.70
2022-09-16T10:08:20.874Z,82.09
2022-09-16T10:10:53.794Z,79.38
2022-09-16T10:13:21.671Z,77.23
2022-09-16T10:15:53.282Z,76.43
2022-09-16T10:18:21.843Z,76.54
2022-09-16T10:21:06.982Z,75.61
2022-09-16T10:23:35.324Z,76.91
2022-09-16T10:26:20.719Z,79.30
2022-09-16T10:28:55.531Z,78.49
2022-09-16T10:31:24.267Z,79.73
2022-09-16T10:33:50.823Z,79.45
2022-09-16T10:36:27.759Z,80.05
2022-09-16T10:39:02.246Z,82.02
2022-09-16T10:41:42.544Z,81.30
2022-09-16T10:44:21.433Z,78.43
2022-09-16T10:46:54.365Z,77.89
2022-09-16T10:49:26.580Z,79.73
2022-09-16T10:52:14.616Z,75.64
2022-09-16T10:54:41.288Z,76.74
2022-09-16T10:57:21.714Z,77.22
2022-09-16T10:59:59.630Z,76.17
2022-09-16T11:02:44.106Z,75.49
2022-09-16T11:05:26.211Z,75.46
2022-09-16T11:08:02.213Z,72.47
2022-09-16T11:10:46.935Z,74.03
2022-09-16T11:13:32.819Z,72.82
2022-09-16T11:16:17.614Z,74.88
2022-09-16T11:18:52.868Z,73.15
2022-09-16T11:21:46.960Z,71.76
2022-09-16T11:24:32.238Z,70.24
2022-09-16T11:27:13.391Z,72.79
2022-09-16T11:30:03.503Z,72.90
2022-09-16T11:32:46.529Z,72.17
2022-09-16T11:35:32.348Z,71.50
2022-09-16T11:38:24.817Z,73.09
2022-09-16T11:41:00.204Z,75.10
2022-09-16T11:43:44.851Z,78.67
2022-09-16T11:46:30.151Z,80.39
2022-09-16T11:49:14.964Z,82.01
2022-09-16T11:51:53.508Z,81.60
2022-09-16T11:54:33.636Z,81.01
2022-09-16T11:57:06.131Z,82.13
2022-09-16T11:59:44.724Z,83.50
2022-09-16T12:02:20.763Z,84.19
2022-09-16T12:05:07.036Z,85.99
2022-09-16T12:07:45.212Z,85.08
2022-09-16T12:10:22.672Z,84.69
2022-09-16T12:12:54.207Z,85.60
2022-09-16T12:15:26.485Z,87.21
2022-09-16T12:18:01.850Z,88.77
2022-09-16T12:20:37.135Z,88.14
2022-09-16T12:23:17.419Z,88.39
2022-09-16T12:26:14.156Z,87.60
2022-09-16T12:29:06.509Z,86.88
2022-09-16T12:31:53.609Z,87.86
2022-09-16T12:34:26.514Z,87.32
2022-09-16T12:37:00.908Z,87.24
2022-09-16T12:39:28.668Z,88.17
2022-09-16T12:42:32.730Z,87.97
2022-09-16T12:45:22.080Z,88.28
2022-09-16T12:48:19.663Z,87.94
2022-09-16T12:50:56.668Z,87.62
2022-09-16T12:53:50.021Z,89.29
2022-09-16T12:56:19.388Z,87.99
2022-09-16T12:59:17.664Z,89.63
2022-09-16T13:01:50.325Z,89.57
2022-09-16T13:04:31.102Z,89.28
2022-09-16T13:07:05.053Z,88.79
2022-09-16T13:09:38.838Z,88.69
2022-09-16T13:15:07.308Z,88.19
2022-09-16T13:17:42.827Z,89.71
2022-09-16T13:20:12.186Z,90.37
2022-09-16T13:22:47.545Z,89.88
2022-09-16T13:25:13.883Z,91.02
2022-09-16T13:27:56.057Z,90.42
2022-09-16T13:30:36.410Z,90.66
2022-09-16T13:33:08.823Z,89.70
2022-09-16T13:35:38.996Z,90.07
2022-09-16T13:38:23.183Z,88.03
2022-09-16T13:41:01.439Z,89.40
2022-09-16T13:43:46.786Z,90.50
2022-09-16T13:46:27.449Z,90.03
2022-09-16T13:49:04.055Z,90.03
2022-09-16T13:51:36.024Z,90.49
2022-09-16T13:54:04.168Z,87.31
2022-09-16T13:56:42.113Z,87.95
2022-09-16T13:59:33.414Z,89.42
2022-09-16T14:02:06.504Z,90.54
2022-09-16T14:04:54.320Z,89.84
2022-09-16T14:07:26.768Z,89.50
2022-09-16T14:10:04.842Z,89.67
2022-09-16T14:13:04.195Z,90.40
2022-09-16T14:15:36.652Z,91.55
2022-09-16T14:18:03.976Z,91.70
2022-09-16T14:20:33.130Z,91.54
2022-09-16T14:23:17.482Z,90.86
2022-09-16T14:25:43.852Z,92.50
2022-09-16T14:28:22.069Z,90.94
2022-09-16T14:30:52.866Z,92.10
2022-09-16T14:33:23.369Z,92.43
2022-09-16T14:35:52.182Z,91.77
2022-09-16T14:38:44.494Z,93.41
2022-09-16T14:41:10.559Z,94.96
2022-09-16T14:43:38.768Z,94.39
2022-09-16T14:46:07.833Z,93.75
2022-09-16T14:48:38.971Z,92.93
2022-09-16T14:51:16.692Z,93.02
2022-09-16T14:54:11.655Z,93.36
2022-09-16T14:56:39.038Z,94.33
2022-09-16T14:59:06.633Z,93.34
2022-09-16T15:01:33.060Z,93.66
2022-09-16T15:04:23.529Z,91.42
2022-09-16T15:06:58.827Z,91.95
2022-09-16T15:09:45.228Z,91.75
2022-09-16T15:12:29.505Z,90.18
2022-09-16T15:14:57.175Z,90.11
2022-09-16T15:17:27.327Z,90.37
2022-09-16T15:19:58.954Z,90.88
2022-09-16T15:22:26.869Z,90.61
2022-09-16T15:24:56.757Z,89.63
2022-09-16T15:27:25.933Z,90.63
2022-09-16T15:30:01.070Z,91.19
2022-09-16T15:32:31.624Z,91.04
2022-09-16T15:35:04.153Z,90.71
2022-09-16T15:37:33.098Z,91.56
2022-09-16T15:40:28.749Z,91.50
2022-09-16T15:43:27.899Z,92.28
2022-09-16T15:46:00.253Z,93.29
2022-09-16T15:48:31.747Z,93.59
2022-09-16T15:51:06.281Z,94.42
2022-09-16T15:53:32.599Z,92.73
2022-09-16T15:56:04.371Z,93.14
2022-09-16T15:58:45.644Z,93.81
2022-09-16T16:01:30.331Z,94.98
2022-09-16T16:03:59.040Z,95.94
2022-09-16T16:06:51.768Z,95.60
2022-09-16T16:09:28.682Z,96.07
2022-09-16T16:11:56.021Z,96.08
2022-09-16T16:14:24.499Z,95.46
2022-09-16T16:17:11.872Z,96.13
2022-09-16T16:19:39.089Z,96.47
2022-09-16T16:22:06.939Z,95.07
2022-09-16T16:24:33.811Z,95.54
2022-09-16T16:27:00.481Z,94.75
2022-09-16T16:29:27.119Z,94.52
2022-09-16T16:32:04.404Z,94.84
2022-09-16T16:34:35.658Z,95.34
2022-09-16T16:37:02.981Z,95.39
2022-09-16T16:39:35.178Z,95.62
2022-09-16T16:42:04.974Z,94.79
2022-09-16T16:44:31.857Z,94.86
2022-09-16T16:46:59.383Z,95.12
2022-09-16T16:49:29.867Z,94.92
2022-09-16T16:52:09.611Z,94.87
2022-09-16T16:54:43.676Z,94.52
2022-09-16T16:57:11.132Z,95.29
2022-09-16T16:59:38.607Z,95.77
2022-09-16T17:02:05.501Z,96.10
2022-09-16T17:04:31.882Z,94.92
2022-09-16T17:07:23.980Z,95.34
2022-09-16T17:09:49.351Z,94.82
2022-09-16T17:12:18.132Z,94.49
2022-09-16T17:14:44.684Z,94.46
2022-09-16T17:17:11.142Z,94.13
2022-09-16T17:19:38.546Z,94.02
2022-09-16T17:22:05.112Z,92.55
2022-09-16T17:24:34.528Z,92.41
2022-09-16T17:27:01.598Z,91.86
2022-09-16T17:29:29.245Z,93.09
2022-09-16T17:32:00.588Z,94.08
2022-09-16T17:34:28.078Z,94.37
2022-09-16T17:36:57.524Z,94.31
2022-09-16T17:39:24.112Z,94.25
2022-09-16T17:41:51.570Z,93.73
2022-09-16T17:44:19.542Z,93.85
2022-09-16T17:46:48.119Z,93.98
2022-09-16T17:49:22.559Z,94.22
2022-09-16T17:51:50.263Z,93.85
2022-09-16T17:54:17.333Z,93.57
2022-09-16T17:56:47.959Z,93.79
2022-09-16T17:59:17.191Z,95.04
2022-09-16T18:01:43.968Z,95.72
2022-09-16T18:04:11.003Z,95.34
2022-09-16T18:06:45.607Z,96.15
2022-09-16T18:09:14.299Z,96.74
2022-09-16T18:11:40.828Z,97.21
2022-09-16T18:14:10.120Z,96.88
2022-09-16T18:16:36.599Z,97.34
2022-09-16T18:19:04.434Z,97.07
2022-09-16T18:21:31.722Z,97.00
2022-09-16T18:24:01.051Z,97.24
2022-09-16T18:26:28.714Z,96.83
2022-09-16T18:29:12.646Z,95.96
2022-09-16T18:31:41.710Z,95.18
2022-09-16T18:34:08.363Z,95.23
2022-09-16T18:36:36.814Z,93.69
2022-09-16T18:39:04.390Z,93.75
2022-09-16T18:41:34.965Z,93.75
2022-09-16T18:44:04.887Z,92.76
2022-09-16T18:46:33.746Z,92.85
2022-09-16T18:49:00.768Z,93.39
2022-09-16T18:51:38.512Z,92.05
2022-09-16T18:54:11.953Z,92.46
2022-09-16T18:56:40.020Z,92.49
2022-09-16T18:59:23.851Z,92.15
2022-09-16T19:01:53.445Z,94.36
2022-09-16T19:04:23.240Z,94.40
2022-09-16T19:06:51.954Z,94.17
2022-09-16T19:09:20.665Z,94.38
2022-09-16T19:11:47.827Z,91.61
2022-09-16T19:14:14.838Z,90.89
2022-09-16T19:16:43.082Z,90.92
2022-09-16T19:19:11.248Z,91.04
2022-09-16T19:21:38.086Z,91.66
2022-09-16T19:24:07.525Z,89.29
2022-09-16T19:26:36.299Z,89.03
2022-09-16T19:29:06.630Z,90.52
2022-09-16T19:31:35.194Z,91.59
2022-09-16T19:34:02.076Z,90.68
2022-09-16T19:36:30.531Z,90.51
2022-09-16T19:38:59.346Z,90.60
2022-09-16T19:41:29.214Z,90.73
2022-09-16T19:43:58.310Z,88.68
2022-09-16T19:46:25.777Z,87.92
2022-09-16T19:48:52.879Z,89.58
2022-09-16T19:51:22.752Z,88.88
2022-09-16T19:53:50.218Z,89.11
2022-09-16T19:56:21.326Z,87.55
2022-09-16T19:58:48.225Z,88.04
2022-09-16T20:01:18.257Z,88.74
2022-09-16T20:03:45.746Z,88.63
2022-09-16T20:06:14.439Z,88.37
2022-09-16T20:08:42.727Z,89.36
2022-09-16T20:11:21.589Z,89.10
2022-09-16T20:14:00.218Z,89.63
2022-09-16T20:16:28.879Z,87.65
2022-09-16T20:18:55.481Z,89.54
2022-09-16T20:21:26.838Z,90.70
2022-09-16T20:23:54.316Z,89.40
2022-09-16T20:26:21.981Z,89.01
2022-09-16T20:28:51.354Z,91.02
2022-09-16T20:31:29.188Z,90.92
2022-09-16T20:33:55.931Z,91.21
2022-09-16T20:36:24.357Z,91.31
2022-09-16T20:38:51.134Z,91.67
2022-09-16T20:41:23.734Z,91.63
2022-09-16T20:43:51.039Z,91.80
2022-09-16T20:46:21.647Z,92.83
2022-09-16T20:48:49.116Z,92.62
2022-09-16T20:51:18.154Z,92.51
2022-09-16T20:53:49.870Z,91.37
2022-09-16T20:56:17.518Z,92.98
2022-09-16T20:58:44.531Z,94.22
2022-09-16T21:01:14.989Z,95.14
2022-09-16T21:03:42.821Z,93.78
2022-09-16T21:06:12.274Z,94.32
2022-09-16T21:08:39.760Z,94.99
2022-09-16T21:11:09.264Z,95.30
2022-09-16T21:13:35.713Z,95.09
2022-09-16T21:16:02.641Z,95.69
2022-09-16T21:18:30.404Z,92.93
2022-09-16T21:21:01.839Z,94.04
2022-09-16T21:23:28.982Z,95.34
2022-09-16T21:25:56.017Z,95.86
2022-09-16T21:28:23.303Z,94.89
2022-09-16T21:30:59.621Z,93.86
2022-09-16T21:33:27.296Z,94.40
2022-09-16T21:35:53.854Z,93.78
2022-09-16T21:38:20.839Z,92.70
2022-09-16T21:40:54.722Z,92.46
2022-09-16T21:43:21.153Z,92.29
2022-09-16T21:45:48.033Z,92.34
2022-09-16T21:48:16.548Z,91.55
2022-09-16T21:50:42.930Z,92.67
2022-09-16T21:53:09.361Z,92.54
2022-09-16T21:55:35.747Z,92.54
2022-09-16T21:58:02.120Z,92.18
2022-09-16T22:00:30.350Z,92.90
2022-09-16T22:02:57.100Z,92.47
2022-09-16T22:05:23.903Z,93.61
2022-09-16T22:07:50.378Z,94.75
2022-09-16T22:10:16.970Z,93.45
2022-09-16T22:12:43.865Z,93.78
2022-09-16T22:15:10.550Z,93.25
2022-09-16T22:17:36.938Z,93.57
2022-09-16T22:20:03.608Z,93.56
2022-09-16T22:22:30.956Z,94.26
2022-09-16T22:24:57.311Z,94.48
2022-09-16T22:27:23.725Z,94.06
2022-09-16T22:29:50.106Z,92.44
2022-09-16T22:32:16.468Z,92.51
2022-09-16T22:34:42.856Z,92.06
2022-09-16T22:37:09.277Z,92.93
2022-09-16T22:39:35.676Z,91.79
2022-09-16T22:42:02.065Z,91.04
2022-09-16T22:44:28.514Z,91.85
2022-09-16T22:46:54.938Z,91.70
2022-09-16T22:49:21.324Z,90.79
2022-09-16T22:51:51.858Z,90.78
2022-09-16T22:54:18.283Z,91.16
2022-09-16T22:56:44.679Z,89.53
2022-09-16T22:59:19.739Z,89.81
2022-09-16T23:01:47.012Z,88.80
2022-09-16T23:04:13.598Z,88.99
2022-09-16T23:06:40.137Z,87.66
2022-09-16T23:09:09.122Z,88.73
2022-09-16T23:11:36.045Z,88.21
2022-09-16T23:14:04.078Z,90.30
2022-09-16T23:16:33.326Z,90.84
2022-09-16T23:19:02.034Z,90.24
2022-09-16T23:21:29.155Z,89.63
2022-09-16T23:23:57.461Z,90.87
2022-09-16T23:26:27.207Z,90.67
2022-09-16T23:28:56.129Z,91.08
2022-09-16T23:31:25.507Z,90.80
2022-09-16T23:33:53.174Z,90.17
2022-09-16T23:36:20.200Z,89.83
2022-09-16T23:38:48.110Z,89.34
2022-09-16T23:41:20.564Z,89.03
2022-09-16T23:43:48.714Z,89.71
2022-09-16T23:46:19.130Z,87.49
2022-09-16T23:48:46.110Z,87.39
2022-09-16T23:51:14.036Z,88.14
2022-09-16T23:53:42.376Z,87.08
2022-09-16T23:56:11.032Z,86.69
2022-09-16T23:58:37.856Z,87.26
